Pagina principale
METAR-TAF:

METAR-TAF

Aeroporti :

Gibuti, Gibuti

latitudine: 11-33N, longitudine: 043-10E, altezza: 49 m

Osservazione

Il bollettino è stato emesso 26 minuti fa, alle 08:00 UTC
Vento 8 kt da est
Temperature 34°C
Umidità 53%
Pressione 1010 hPa
Visibilità 10 km o più
Poco nuvoloso ad un'altezza di 2300 ft

METAR: HDAM 210800Z 08008KT 9999 FEW023 34/23 Q1010

Ora: 11:26 (08:26 UTC)

Previsione

Il bollettino è stato emesso 3 ore e 26 minuti fa, alle 05:00 UTC
Previsione valida dal 21 alle 06 UTC al 22 alle 06 UTC
Vento 10 kt da est con raffiche fino a 15 kt
Nubi sparse ad un'altezza di 2300 ft
Evoluzione graduale
dal 21 alle 15 UTC al 21 alle 18 UTC
Vento 5 kt da direzioni variabili
Poco nuvoloso ad un'altezza di 2000 ft
Evoluzione graduale
dal 22 alle 00 UTC al 22 alle 06 UTC
Vento kt da nord
Nubi sparse ad un'altezza di 2000 ft

TAF: HDAM 210500Z 2106/2206 08010G15KT 9/9 SCT023 BECMG 2115/2118 VRB05KT FEW020 BECMG 2200/2206 00000KT SCT020

Osservazioni e previsioni meteorologiche di più di 4000 aeroporti (messaggi METAR e TAF).

Le stazioni disponibili sono rappresentate dai dischi gialli e rossi sulla carta.

Puntare il mouse per vedere il nome della stazione.

Clicca sopra per visualizzare le osservazioni e previsioni meteorologiche.

Per cambiare la mappa : fare clic sui pulsanti verdi con una croce nera per ingrandire, il pulsante verde con un trattino per diminuire, o sulla freccia verde per le mappe adiacenti.


METAR-TAF: